createdAt,value
2022-08-02T00:01:04.735Z,5.90
2022-08-02T00:03:33.373Z,7.40
2022-08-02T00:06:02.204Z,6.90
2022-08-02T00:08:30.817Z,6.50
2022-08-02T00:10:59.571Z,8.60
2022-08-02T00:13:28.202Z,7.80
2022-08-02T00:15:56.781Z,8.10
2022-08-02T00:18:25.503Z,7.80
2022-08-02T00:20:54.029Z,6.20
2022-08-02T00:23:22.653Z,7.20
2022-08-02T00:25:55.042Z,6.70
2022-08-02T00:28:27.452Z,5.80
2022-08-02T00:30:58.679Z,7.00
2022-08-02T00:34:26.472Z,6.30
2022-08-02T00:36:16.972Z,7.20
2022-08-02T00:38:46.559Z,6.00
2022-08-02T00:41:18.988Z,6.40
2022-08-02T00:43:49.281Z,6.80
2022-08-02T00:46:19.612Z,6.10
2022-08-02T00:48:48.656Z,5.70
2022-08-02T00:51:18.536Z,8.20
2022-08-02T00:53:46.997Z,5.80
2022-08-02T00:56:15.576Z,6.10
2022-08-02T00:58:44.156Z,5.60
2022-08-02T01:01:12.968Z,6.00
2022-08-02T01:03:41.866Z,7.90
2022-08-02T01:06:11.757Z,6.10
2022-08-02T01:08:40.800Z,6.20
2022-08-02T01:11:09.380Z,6.00
2022-08-02T01:13:38.037Z,5.40
2022-08-02T01:16:16.298Z,7.60
2022-08-02T01:18:51.541Z,5.80
2022-08-02T01:22:13.224Z,5.80
2022-08-02T01:25:26.384Z,6.40
2022-08-02T01:28:43.920Z,6.40
2022-08-02T01:31:43.155Z,6.60
2022-08-02T01:35:03.557Z,5.10
2022-08-02T01:38:17.239Z,6.00
2022-08-02T01:40:47.264Z,6.60
2022-08-02T01:43:17.825Z,6.80
2022-08-02T01:45:48.113Z,7.60
2022-08-02T01:48:18.275Z,6.40
2022-08-02T01:50:49.382Z,8.20
2022-08-02T01:53:20.053Z,8.70
2022-08-02T01:55:58.203Z,6.50
2022-08-02T01:58:35.215Z,8.70
2022-08-02T02:01:06.768Z,10.40
2022-08-02T02:03:41.758Z,8.40
2022-08-02T02:06:11.818Z,8.90
2022-08-02T02:08:43.799Z,10.00
2022-08-02T02:12:06.023Z,8.30
2022-08-02T02:14:04.083Z,9.80
2022-08-02T02:16:34.031Z,8.40
2022-08-02T02:19:04.283Z,9.00
2022-08-02T02:21:35.018Z,8.10
2022-08-02T02:24:05.880Z,7.70
2022-08-02T02:26:48.019Z,9.60
2022-08-02T02:31:53.352Z,7.20
2022-08-02T02:34:37.926Z,7.70
2022-08-02T02:37:12.956Z,10.10
2022-08-02T02:39:44.390Z,8.60
2022-08-02T02:42:17.887Z,9.10
2022-08-02T02:44:48.592Z,9.20
2022-08-02T02:47:19.337Z,9.00
2022-08-02T02:49:49.215Z,8.60
2022-08-02T02:52:19.045Z,9.90
2022-08-02T02:54:49.785Z,9.20
2022-08-02T02:57:20.304Z,9.90
2022-08-02T02:59:50.064Z,8.00
2022-08-02T03:02:20.050Z,10.10
2022-08-02T03:04:57.404Z,9.90
2022-08-02T03:07:27.643Z,9.10
2022-08-02T03:09:56.254Z,9.90
2022-08-02T03:12:31.433Z,9.70
2022-08-02T03:15:05.970Z,9.30
2022-08-02T03:17:43.477Z,10.40
2022-08-02T03:20:20.152Z,9.60
2022-08-02T03:22:49.489Z,8.60
2022-08-02T03:25:18.996Z,11.20
2022-08-02T03:27:47.718Z,9.90
2022-08-02T03:30:16.641Z,7.90
2022-08-02T03:32:48.577Z,9.10
2022-08-02T03:35:23.826Z,10.70
2022-08-02T03:37:56.157Z,9.70
2022-08-02T03:40:26.721Z,11.50
2022-08-02T03:42:55.776Z,9.90
2022-08-02T03:45:27.744Z,10.30
2022-08-02T03:47:58.876Z,10.40
2022-08-02T03:50:28.509Z,8.30
2022-08-02T03:52:57.427Z,9.30
2022-08-02T03:55:26.252Z,9.80
2022-08-02T03:57:54.853Z,9.60
2022-08-02T04:00:24.296Z,9.40
2022-08-02T04:02:53.468Z,7.70
2022-08-02T04:05:22.041Z,8.20
2022-08-02T04:08:36.410Z,9.20
2022-08-02T04:10:58.920Z,11.80
2022-08-02T04:13:35.619Z,9.90
2022-08-02T04:16:11.042Z,14.20
2022-08-02T04:18:56.225Z,9.80
2022-08-02T04:21:50.156Z,8.10
2022-08-02T04:24:34.943Z,8.10
2022-08-02T04:27:19.141Z,7.80
2022-08-02T04:29:54.834Z,9.10
2022-08-02T04:32:24.442Z,9.90
2022-08-02T04:35:18.296Z,9.00
2022-08-02T04:38:09.729Z,11.00
2022-08-02T04:40:31.650Z,9.80
2022-08-02T04:43:00.172Z,8.60
2022-08-02T04:45:31.642Z,8.80
2022-08-02T04:48:07.145Z,8.80
2022-08-02T04:50:36.032Z,9.40
2022-08-02T04:53:04.594Z,12.20
2022-08-02T04:55:33.153Z,8.50
2022-08-02T04:58:06.757Z,11.50
2022-08-02T05:00:42.594Z,9.00
2022-08-02T05:03:11.175Z,8.50
2022-08-02T05:05:39.748Z,9.30
2022-08-02T05:08:08.368Z,8.20
2022-08-02T05:10:36.896Z,10.30
2022-08-02T05:13:06.417Z,9.10
2022-08-02T05:15:34.841Z,7.70
2022-08-02T05:18:03.774Z,9.00
2022-08-02T05:20:32.244Z,9.40
2022-08-02T05:23:00.809Z,8.10
2022-08-02T05:25:29.329Z,8.90
2022-08-02T05:27:57.956Z,7.10
2022-08-02T05:30:26.680Z,10.00
2022-08-02T05:32:55.203Z,6.90
2022-08-02T05:35:25.166Z,7.50
2022-08-02T05:37:53.951Z,8.20
2022-08-02T05:40:25.384Z,6.70
2022-08-02T05:42:55.649Z,8.80
2022-08-02T05:45:24.329Z,8.70
2022-08-02T05:47:53.454Z,7.80
2022-08-02T05:50:22.121Z,5.80
2022-08-02T05:53:05.464Z,9.60
2022-08-02T05:55:58.050Z,6.30
2022-08-02T05:58:49.755Z,6.80
2022-08-02T06:01:37.097Z,7.10
2022-08-02T06:04:09.525Z,7.30
2022-08-02T06:06:43.524Z,7.60
2022-08-02T06:09:23.225Z,8.70
2022-08-02T06:12:11.505Z,8.00
2022-08-02T06:14:42.071Z,9.20
2022-08-02T06:17:11.452Z,7.40
2022-08-02T06:19:51.082Z,7.10
2022-08-02T06:22:31.754Z,7.80
2022-08-02T06:25:06.552Z,8.40
2022-08-02T06:27:41.947Z,11.70
2022-08-02T06:30:11.366Z,8.20
2022-08-02T06:32:40.387Z,6.80
2022-08-02T06:35:09.319Z,7.30
2022-08-02T06:37:54.505Z,7.80
2022-08-02T06:41:00.889Z,6.40
2022-08-02T06:43:55.665Z,8.40
2022-08-02T06:46:37.794Z,10.30
2022-08-02T06:49:13.163Z,6.10
2022-08-02T06:51:42.000Z,7.40
2022-08-02T06:54:10.462Z,6.90
2022-08-02T06:56:39.477Z,8.90
2022-08-02T06:59:08.209Z,8.60
2022-08-02T07:01:38.741Z,5.90
2022-08-02T07:04:08.028Z,7.80
2022-08-02T07:06:36.906Z,6.80
2022-08-02T07:09:22.058Z,6.80
2022-08-02T07:11:51.146Z,7.00
2022-08-02T07:14:19.673Z,6.60
2022-08-02T07:16:48.203Z,7.00
2022-08-02T07:19:18.824Z,7.60
2022-08-02T07:21:56.690Z,7.50
2022-08-02T07:27:14.020Z,6.50
2022-08-02T07:29:46.165Z,6.80
2022-08-02T07:32:22.566Z,6.20
2022-08-02T07:34:54.193Z,8.60
2022-08-02T07:37:55.692Z,6.60
2022-08-02T07:40:21.151Z,7.40
2022-08-02T07:42:54.488Z,9.40
2022-08-02T07:45:26.633Z,5.70
2022-08-02T07:47:58.064Z,5.90
2022-08-02T07:50:28.488Z,7.00
2022-08-02T07:52:58.262Z,7.20
2022-08-02T07:55:31.148Z,5.40
2022-08-02T07:58:13.281Z,5.00
2022-08-02T08:00:44.457Z,4.20
2022-08-02T08:03:13.813Z,6.10
2022-08-02T08:05:42.743Z,5.00
2022-08-02T08:08:16.888Z,4.50
2022-08-02T08:10:47.512Z,7.00
2022-08-02T08:13:16.431Z,5.00
2022-08-02T08:15:50.092Z,5.10
2022-08-02T08:18:24.179Z,6.50
2022-08-02T08:20:52.600Z,5.40
2022-08-02T08:23:21.120Z,5.70
2022-08-02T08:25:49.644Z,7.40
2022-08-02T08:28:18.167Z,5.10
2022-08-02T08:30:47.770Z,6.50
2022-08-02T08:33:16.714Z,5.60
2022-08-02T08:35:45.236Z,7.00
2022-08-02T08:38:15.827Z,5.70
2022-08-02T08:40:45.055Z,9.80
2022-08-02T08:43:14.629Z,8.90
2022-08-02T08:45:55.578Z,5.50
2022-08-02T08:48:30.744Z,5.30
2022-08-02T08:51:11.861Z,5.60
2022-08-02T08:53:44.272Z,5.30
2022-08-02T08:56:16.219Z,6.70
2022-08-02T08:58:49.743Z,5.60
2022-08-02T09:01:18.382Z,7.60
2022-08-02T09:03:47.243Z,6.70
2022-08-02T09:06:15.868Z,5.50
2022-08-02T09:08:45.187Z,5.60
2022-08-02T09:11:19.910Z,5.50
2022-08-02T09:13:56.616Z,7.20
2022-08-02T09:16:40.106Z,9.60
2022-08-02T09:19:27.066Z,6.50
2022-08-02T09:22:11.742Z,6.10
2022-08-02T09:24:48.276Z,7.10
2022-08-02T09:27:20.497Z,5.60
2022-08-02T09:30:13.290Z,6.50
2022-08-02T09:32:48.278Z,5.80
2022-08-02T09:36:06.582Z,6.70
2022-08-02T09:38:27.778Z,5.90
2022-08-02T09:40:57.064Z,5.00
2022-08-02T09:44:03.729Z,6.70
2022-08-02T09:46:53.331Z,6.30
2022-08-02T09:49:22.210Z,5.50
2022-08-02T09:51:53.495Z,8.20
2022-08-02T09:54:28.928Z,7.30
2022-08-02T09:57:00.368Z,6.10
2022-08-02T09:59:30.224Z,5.00
2022-08-02T10:02:03.990Z,6.50
2022-08-02T10:04:34.142Z,5.70
2022-08-02T10:07:24.284Z,5.30
2022-08-02T10:09:53.175Z,5.40
2022-08-02T10:12:25.009Z,6.10
2022-08-02T10:14:53.639Z,5.90
2022-08-02T10:17:23.070Z,6.20
2022-08-02T10:20:02.491Z,5.40
2022-08-02T10:22:34.823Z,6.10
2022-08-02T10:25:07.238Z,6.80
2022-08-02T10:28:02.440Z,7.00
2022-08-02T10:30:29.668Z,5.10
2022-08-02T10:33:01.116Z,5.60
2022-08-02T10:35:34.242Z,5.80
2022-08-02T10:38:08.365Z,6.20
2022-08-02T10:40:50.114Z,4.30
2022-08-02T10:43:36.732Z,8.70
2022-08-02T10:46:33.716Z,4.80
2022-08-02T10:49:38.649Z,5.30
2022-08-02T10:52:08.841Z,5.50
2022-08-02T10:55:04.208Z,4.50
2022-08-02T11:00:24.087Z,5.80
2022-08-02T11:02:54.080Z,4.30
2022-08-02T11:05:43.482Z,5.80
2022-08-02T11:08:23.051Z,4.40
2022-08-02T11:10:51.683Z,4.00
2022-08-02T11:13:20.755Z,4.80
2022-08-02T11:16:11.403Z,5.30
2022-08-02T11:18:52.520Z,6.30
2022-08-02T11:21:33.198Z,4.80
2022-08-02T11:24:33.037Z,4.50
2022-08-02T11:27:08.101Z,4.70
2022-08-02T11:29:41.606Z,4.40
2022-08-02T11:32:31.126Z,4.60
2022-08-02T11:35:01.074Z,4.90
2022-08-02T11:37:38.085Z,4.10
2022-08-02T11:40:20.169Z,5.50
2022-08-02T11:42:53.945Z,4.70
2022-08-02T11:45:29.647Z,4.40
2022-08-02T11:47:58.943Z,7.60
2022-08-02T11:50:30.172Z,4.90
2022-08-02T11:52:59.810Z,3.90
2022-08-02T11:55:31.235Z,7.80
2022-08-02T11:58:08.758Z,4.70
2022-08-02T12:00:38.430Z,5.90
2022-08-02T12:03:08.213Z,6.20
2022-08-02T12:06:05.436Z,5.00
2022-08-02T12:08:26.413Z,5.30
2022-08-02T12:10:54.820Z,5.90
2022-08-02T12:13:23.418Z,7.20
2022-08-02T12:15:51.930Z,6.30
2022-08-02T12:18:40.935Z,5.00
2022-08-02T12:21:26.263Z,5.20
2022-08-02T12:24:00.151Z,5.00
2022-08-02T12:26:30.728Z,5.80
2022-08-02T12:28:59.881Z,4.90
2022-08-02T12:31:57.512Z,4.50
2022-08-02T12:34:32.302Z,5.90
2022-08-02T12:37:07.312Z,4.30
2022-08-02T12:39:45.914Z,5.50
2022-08-02T12:42:16.621Z,4.60
2022-08-02T12:45:01.148Z,3.40
2022-08-02T12:47:31.380Z,5.30
2022-08-02T12:50:22.055Z,3.90
2022-08-02T12:52:51.731Z,4.50
2022-08-02T12:55:26.100Z,5.50
2022-08-02T12:58:14.698Z,6.90
2022-08-02T13:01:12.999Z,4.90
2022-08-02T13:04:11.009Z,7.70
2022-08-02T13:06:40.702Z,5.60
2022-08-02T13:09:17.526Z,4.70
2022-08-02T13:11:46.595Z,4.90
2022-08-02T13:14:15.840Z,4.60
2022-08-02T13:16:46.628Z,6.20
2022-08-02T13:19:15.943Z,5.10
2022-08-02T13:22:01.137Z,4.90
2022-08-02T13:24:39.621Z,5.60
2022-08-02T13:27:10.279Z,3.80
2022-08-02T13:29:39.223Z,4.20
2022-08-02T13:32:07.712Z,4.10
2022-08-02T13:34:36.836Z,5.30
2022-08-02T13:37:05.457Z,6.10
2022-08-02T13:39:34.076Z,5.20
2022-08-02T13:42:03.001Z,5.10
2022-08-02T13:44:31.624Z,4.30
2022-08-02T13:47:01.167Z,6.40
2022-08-02T13:49:49.657Z,5.20
2022-08-02T13:52:18.445Z,4.20
2022-08-02T13:54:46.951Z,5.50
2022-08-02T13:57:15.411Z,4.60
2022-08-02T13:59:56.328Z,3.80
2022-08-02T14:02:28.569Z,4.30
2022-08-02T14:04:57.294Z,3.90
2022-08-02T14:07:25.959Z,6.30
2022-08-02T14:09:54.476Z,5.20
2022-08-02T14:12:22.970Z,4.80
2022-08-02T14:14:51.518Z,5.60
2022-08-02T14:17:20.137Z,3.80
2022-08-02T14:19:48.661Z,3.30
2022-08-02T14:22:17.585Z,7.10
2022-08-02T14:24:46.072Z,5.40
2022-08-02T14:27:15.717Z,6.30
2022-08-02T14:29:44.167Z,3.40
2022-08-02T14:32:12.869Z,3.90
2022-08-02T14:34:41.622Z,5.40
2022-08-02T14:37:11.042Z,3.20
2022-08-02T14:39:43.631Z,4.00
2022-08-02T14:42:28.002Z,3.10
2022-08-02T14:44:56.461Z,5.10
2022-08-02T14:47:25.075Z,4.20
2022-08-02T14:49:53.567Z,3.80
2022-08-02T14:52:22.226Z,4.50
2022-08-02T14:54:50.803Z,3.40
2022-08-02T14:57:19.263Z,4.00
2022-08-02T14:59:48.727Z,6.20
2022-08-02T15:02:17.280Z,2.40
2022-08-02T15:04:45.896Z,5.20
2022-08-02T15:07:15.887Z,2.90
2022-08-02T15:09:44.720Z,4.20
2022-08-02T15:12:13.562Z,6.80
2022-08-02T15:14:43.075Z,2.70
2022-08-02T15:17:11.919Z,2.80
2022-08-02T15:19:57.889Z,3.00
2022-08-02T15:22:29.604Z,5.70
2022-08-02T15:24:59.799Z,2.60
2022-08-02T15:27:28.343Z,2.20
2022-08-02T15:30:00.619Z,2.20
2022-08-02T15:32:29.536Z,3.00
2022-08-02T15:34:57.995Z,2.80
2022-08-02T15:37:30.838Z,5.90
2022-08-02T15:40:02.597Z,3.30
2022-08-02T15:42:31.188Z,4.00
2022-08-02T15:45:00.192Z,2.30
2022-08-02T15:47:28.687Z,2.90
2022-08-02T15:49:58.616Z,2.60
2022-08-02T15:52:27.741Z,2.50
2022-08-02T15:54:56.784Z,2.70
2022-08-02T15:57:36.351Z,5.10
2022-08-02T16:00:06.856Z,4.10
2022-08-02T16:02:45.233Z,2.90
2022-08-02T16:05:18.400Z,2.40
2022-08-02T16:07:47.010Z,2.60
2022-08-02T16:10:18.046Z,4.10
2022-08-02T16:12:46.636Z,2.10
2022-08-02T16:15:15.172Z,5.00
2022-08-02T16:17:48.569Z,2.50
2022-08-02T16:20:23.375Z,3.10
2022-08-02T16:22:51.828Z,5.40
2022-08-02T16:25:20.861Z,3.50
2022-08-02T16:28:06.476Z,2.60
2022-08-02T16:30:36.350Z,4.00
2022-08-02T16:33:04.950Z,7.20
2022-08-02T16:35:35.014Z,3.90
2022-08-02T16:38:04.255Z,1.90
2022-08-02T16:40:34.593Z,2.00
2022-08-02T16:43:03.792Z,2.20
2022-08-02T16:45:37.720Z,3.10
2022-08-02T16:48:07.853Z,2.40
2022-08-02T16:53:07.086Z,2.60
2022-08-02T16:55:36.931Z,3.70
2022-08-02T16:58:09.532Z,5.70
2022-08-02T17:00:46.597Z,2.30
2022-08-02T17:03:16.205Z,2.30
2022-08-02T17:05:56.074Z,2.40
2022-08-02T17:08:31.726Z,2.90
2022-08-02T17:11:03.766Z,4.60
2022-08-02T17:16:25.899Z,3.10
2022-08-02T17:18:55.520Z,2.80
2022-08-02T17:21:24.185Z,2.50
2022-08-02T17:24:04.886Z,2.40
2022-08-02T17:26:37.298Z,2.60
2022-08-02T17:29:14.521Z,1.90
2022-08-02T17:32:05.875Z,2.40
2022-08-02T17:34:37.095Z,4.00
2022-08-02T17:37:06.397Z,3.80
2022-08-02T17:39:43.923Z,3.30
2022-08-02T17:42:23.651Z,3.00
2022-08-02T17:45:07.064Z,2.70
2022-08-02T17:48:04.486Z,2.40
2022-08-02T17:50:35.017Z,3.90
2022-08-02T17:53:05.191Z,3.90
2022-08-02T17:55:36.016Z,2.80
2022-08-02T17:58:07.651Z,3.10
2022-08-02T18:00:41.167Z,3.80
2022-08-02T18:03:13.529Z,3.10
2022-08-02T18:05:55.247Z,5.50
2022-08-02T18:08:24.352Z,2.90
2022-08-02T18:10:54.632Z,2.10
2022-08-02T18:13:23.971Z,4.10
2022-08-02T18:15:59.175Z,3.40
2022-08-02T18:18:29.880Z,5.00
2022-08-02T18:21:15.751Z,3.30
2022-08-02T18:23:49.465Z,4.70
2022-08-02T18:26:28.847Z,3.50
2022-08-02T18:28:59.587Z,5.70
2022-08-02T18:31:28.002Z,3.90
2022-08-02T18:34:02.048Z,6.70
2022-08-02T18:36:32.233Z,2.90
2022-08-02T18:39:07.694Z,3.60
2022-08-02T18:41:36.676Z,4.20
2022-08-02T18:44:06.701Z,4.90
2022-08-02T18:46:35.371Z,4.60
2022-08-02T18:49:14.760Z,5.00
2022-08-02T18:51:44.374Z,2.80
2022-08-02T18:54:12.918Z,5.70
2022-08-02T18:56:47.510Z,2.90
2022-08-02T18:59:16.989Z,2.90
2022-08-02T19:01:51.058Z,4.30
2022-08-02T19:04:27.695Z,5.60
2022-08-02T19:09:48.085Z,4.80
2022-08-02T19:15:06.428Z,4.00
2022-08-02T19:17:55.055Z,3.30
2022-08-02T19:20:23.385Z,5.10
2022-08-02T19:22:53.817Z,2.80
2022-08-02T19:25:27.789Z,2.90
2022-08-02T19:27:56.643Z,3.60
2022-08-02T19:30:26.351Z,4.90
2022-08-02T19:32:59.807Z,5.60
2022-08-02T19:35:34.211Z,4.00
2022-08-02T19:38:11.510Z,2.40
2022-08-02T19:40:43.607Z,3.20
2022-08-02T19:44:27.472Z,3.70
2022-08-02T19:46:01.881Z,8.30
2022-08-02T19:48:33.689Z,5.00
2022-08-02T19:51:02.562Z,7.40
2022-08-02T19:53:47.194Z,5.70
2022-08-02T19:56:25.295Z,4.60
2022-08-02T19:58:58.045Z,3.90
2022-08-02T20:01:36.904Z,4.20
2022-08-02T20:06:47.828Z,3.40
2022-08-02T20:09:21.466Z,3.30
2022-08-02T20:11:54.384Z,3.30
2022-08-02T20:14:26.786Z,3.80
2022-08-02T20:16:57.440Z,2.60
2022-08-02T20:19:29.689Z,4.40
2022-08-02T20:22:00.657Z,4.60
2022-08-02T20:24:30.359Z,3.10
2022-08-02T20:26:59.835Z,4.30
2022-08-02T20:29:43.721Z,3.70
2022-08-02T20:32:23.643Z,3.60
2022-08-02T20:34:53.238Z,3.80
2022-08-02T20:37:59.688Z,9.60
2022-08-02T20:40:17.159Z,4.90
2022-08-02T20:42:48.426Z,4.10
2022-08-02T20:45:21.819Z,4.60
2022-08-02T20:47:52.457Z,4.10
2022-08-02T20:50:41.325Z,6.30
2022-08-02T20:56:02.387Z,5.00
2022-08-02T20:58:32.417Z,4.00
2022-08-02T21:01:00.896Z,4.20
2022-08-02T21:03:39.265Z,4.10
2022-08-02T21:06:14.688Z,9.30
2022-08-02T21:08:45.929Z,7.20
2022-08-02T21:11:14.969Z,5.60
2022-08-02T21:13:46.865Z,4.40
2022-08-02T21:16:33.673Z,4.20
2022-08-02T21:19:02.517Z,4.40
2022-08-02T21:21:31.210Z,5.70
2022-08-02T21:24:00.237Z,7.10
2022-08-02T21:26:32.637Z,4.80
2022-08-02T21:29:03.525Z,5.50
2022-08-02T21:31:36.133Z,4.40
2022-08-02T21:34:21.551Z,4.60
2022-08-02T21:36:56.231Z,5.70
2022-08-02T21:39:24.648Z,5.10
2022-08-02T21:41:53.498Z,6.40
2022-08-02T21:44:22.934Z,4.30
2022-08-02T21:46:55.101Z,4.50
2022-08-02T21:49:41.134Z,4.90
2022-08-02T21:52:19.844Z,4.70
2022-08-02T21:54:57.521Z,4.50
2022-08-02T21:57:27.018Z,4.50
2022-08-02T22:00:06.077Z,6.20
2022-08-02T22:02:37.529Z,4.60
2022-08-02T22:05:13.320Z,5.60
2022-08-02T22:07:45.600Z,5.40
2022-08-02T22:10:16.794Z,7.90
2022-08-02T22:12:45.304Z,6.40
2022-08-02T22:15:14.456Z,7.60
2022-08-02T22:17:53.653Z,4.70
2022-08-02T22:20:29.270Z,5.30
2022-08-02T22:22:57.950Z,4.20
2022-08-02T22:25:36.496Z,4.70
2022-08-02T22:28:38.890Z,4.70
2022-08-02T22:31:04.941Z,4.70
2022-08-02T22:34:00.985Z,5.30
2022-08-02T22:36:43.909Z,4.30
2022-08-02T22:39:19.026Z,6.00
2022-08-02T22:42:05.302Z,4.90
2022-08-02T22:44:36.227Z,4.10
2022-08-02T22:47:14.628Z,4.70
2022-08-02T22:49:52.999Z,5.60
2022-08-02T22:52:24.472Z,5.40
2022-08-02T22:54:53.016Z,4.50
2022-08-02T22:57:30.187Z,7.90
2022-08-02T22:58:46.794Z,3.50
2022-08-02T22:58:47.186Z,6.80
2022-08-02T22:59:05.754Z,5.40
2022-08-02T23:00:00.800Z,5.40
2022-08-02T23:02:29.991Z,4.30
2022-08-02T23:04:58.671Z,5.40
2022-08-02T23:07:28.049Z,5.20
2022-08-02T23:10:06.206Z,4.90
2022-08-02T23:12:35.021Z,6.30
2022-08-02T23:15:03.864Z,5.00
2022-08-02T23:17:52.898Z,5.40
2022-08-02T23:20:22.078Z,5.20
2022-08-02T23:22:51.118Z,5.50
2022-08-02T23:25:20.406Z,5.30
2022-08-02T23:27:51.117Z,4.40
2022-08-02T23:30:20.429Z,4.50
2022-08-02T23:32:48.918Z,4.10
2022-08-02T23:35:18.054Z,4.50
2022-08-02T23:37:58.903Z,4.80
2022-08-02T23:40:40.563Z,4.80
2022-08-02T23:43:14.730Z,5.00
2022-08-02T23:45:46.537Z,5.50
2022-08-02T23:48:15.225Z,4.30
2022-08-02T23:50:43.620Z,11.40
2022-08-02T23:53:13.762Z,4.00
2022-08-02T23:55:42.355Z,4.60
2022-08-02T23:58:12.322Z,3.90
